CheckWX is a tool to help pilots better visualize weather data.  It is not intended as a substitute for an official pre-flight weather briefing.

12:44:19 UTC

KPVW TAF
Hale County Airport
Plainview, Texas, USA
KPVW 161131Z 1612/1712 VRB06KT P6SM BKN100

Jun-16@
12:00 UTC

Jun-16 @ 12:00 UTC

Jun-17@
12:00 UTC

Jun-17 @ 12:00 UTC

KPVW 161131Z 1612/1712 VRB06KT P6SM BKN100
Wind
  • Variable at 6 KTS
Cloud Levels
  • Broken at 10,000' AGL